sensor_id;sensor_type;location;lat;lon;timestamp;temperature;humidity
15596;DHT22;7898;48.658;9.068;2024-01-15T00:02:19;-1.60;99.90
15596;DHT22;7898;48.658;9.068;2024-01-15T00:04:46;-1.60;99.90
15596;DHT22;7898;48.658;9.068;2024-01-15T00:07:13;-1.30;99.90
15596;DHT22;7898;48.658;9.068;2024-01-15T00:09:40;-1.60;99.90
15596;DHT22;7898;48.658;9.068;2024-01-15T00:12:07;-1.60;99.90
15596;DHT22;7898;48.658;9.068;2024-01-15T00:14:35;-1.60;99.90
15596;DHT22;7898;48.658;9.068;2024-01-15T00:17:02;-1.50;99.90
15596;DHT22;7898;48.658;9.068;2024-01-15T00:19:29;-1.10;99.90
15596;DHT22;7898;48.658;9.068;2024-01-15T00:21:57;-1.60;99.90
15596;DHT22;7898;48.658;9.068;2024-01-15T00:24:24;-1.60;99.90
15596;DHT22;7898;48.658;9.068;2024-01-15T00:26:50;-1.60;99.90
15596;DHT22;7898;48.658;9.068;2024-01-15T00:29:19;-1.60;99.90
15596;DHT22;7898;48.658;9.068;2024-01-15T00:31:47;-1.60;99.90
15596;DHT22;7898;48.658;9.068;2024-01-15T00:34:13;-1.70;99.90
15596;DHT22;7898;48.658;9.068;2024-01-15T00:36:40;-1.70;99.90
15596;DHT22;7898;48.658;9.068;2024-01-15T00:39:07;-1.70;99.90
15596;DHT22;7898;48.658;9.068;2024-01-15T00:41:36;-1.70;99.90
15596;DHT22;7898;48.658;9.068;2024-01-15T00:44:03;-1.60;99.90
15596;DHT22;7898;48.658;9.068;2024-01-15T00:46:30;-1.70;99.90
15596;DHT22;7898;48.658;9.068;2024-01-15T00:48:58;-1.70;99.90
15596;DHT22;7898;48.658;9.068;2024-01-15T00:51:25;-1.80;99.90
15596;DHT22;7898;48.658;9.068;2024-01-15T00:53:52;-1.80;99.90
15596;DHT22;7898;48.658;9.068;2024-01-15T00:56:19;-1.90;99.90
15596;DHT22;7898;48.658;9.068;2024-01-15T00:58:45;-1.90;99.90
15596;DHT22;7898;48.658;9.068;2024-01-15T01:01:12;-2.00;99.90
15596;DHT22;7898;48.658;9.068;2024-01-15T01:03:39;-2.00;99.90
15596;DHT22;7898;48.658;9.068;2024-01-15T01:06:07;-2.00;99.90
15596;DHT22;7898;48.658;9.068;2024-01-15T01:08:34;-1.90;99.90
15596;DHT22;7898;48.658;9.068;2024-01-15T01:11:01;-2.50;99.90
15596;DHT22;7898;48.658;9.068;2024-01-15T01:13:28;-1.40;99.90
15596;DHT22;7898;48.658;9.068;2024-01-15T01:15:54;-1.90;99.90
15596;DHT22;7898;48.658;9.068;2024-01-15T01:18:21;-1.80;99.90
15596;DHT22;7898;48.658;9.068;2024-01-15T01:20:48;-1.80;99.90
15596;DHT22;7898;48.658;9.068;2024-01-15T01:23:16;-1.70;99.90
15596;DHT22;7898;48.658;9.068;2024-01-15T01:25:43;-1.40;99.90
15596;DHT22;7898;48.658;9.068;2024-01-15T01:28:10;-1.70;99.90
15596;DHT22;7898;48.658;9.068;2024-01-15T01:30:37;-1.70;99.90
15596;DHT22;7898;48.658;9.068;2024-01-15T01:33:05;-1.70;99.90
15596;DHT22;7898;48.658;9.068;2024-01-15T01:35:31;-1.60;99.90
15596;DHT22;7898;48.658;9.068;2024-01-15T01:37:58;-1.50;99.90
15596;DHT22;7898;48.658;9.068;2024-01-15T01:40:27;-1.60;99.90
15596;DHT22;7898;48.658;9.068;2024-01-15T01:42:53;-1.60;99.90
15596;DHT22;7898;48.658;9.068;2024-01-15T01:45:20;-1.50;99.90
15596;DHT22;7898;48.658;9.068;2024-01-15T01:47:47;-1.40;99.90
15596;DHT22;7898;48.658;9.068;2024-01-15T01:50:15;-1.30;99.90
15596;DHT22;7898;48.658;9.068;2024-01-15T01:52:42;-1.50;99.90
15596;DHT22;7898;48.658;9.068;2024-01-15T01:55:09;-1.50;99.90
15596;DHT22;7898;48.658;9.068;2024-01-15T01:57:38;-1.50;99.90
15596;DHT22;7898;48.658;9.068;2024-01-15T02:00:07;-1.50;99.90
15596;DHT22;7898;48.658;9.068;2024-01-15T02:02:34;-1.50;99.90
15596;DHT22;7898;48.658;9.068;2024-01-15T02:05:02;-1.50;99.90
15596;DHT22;7898;48.658;9.068;2024-01-15T02:07:30;-1.50;99.90
15596;DHT22;7898;48.658;9.068;2024-01-15T02:09:57;-1.50;99.90
15596;DHT22;7898;48.658;9.068;2024-01-15T02:12:24;-1.50;99.90
15596;DHT22;7898;48.658;9.068;2024-01-15T02:14:52;-1.60;99.90
15596;DHT22;7898;48.658;9.068;2024-01-15T02:17:19;-1.60;99.90
15596;DHT22;7898;48.658;9.068;2024-01-15T02:19:46;-1.60;99.90
15596;DHT22;7898;48.658;9.068;2024-01-15T02:22:13;-1.30;99.90
15596;DHT22;7898;48.658;9.068;2024-01-15T02:24:41;-1.60;99.90
15596;DHT22;7898;48.658;9.068;2024-01-15T02:27:08;-1.60;99.90
15596;DHT22;7898;48.658;9.068;2024-01-15T02:29:35;-1.50;99.90
15596;DHT22;7898;48.658;9.068;2024-01-15T02:32:04;-1.50;99.90
15596;DHT22;7898;48.658;9.068;2024-01-15T02:34:32;-1.50;99.90
15596;DHT22;7898;48.658;9.068;2024-01-15T02:36:59;-1.50;99.90
15596;DHT22;7898;48.658;9.068;2024-01-15T02:39:26;-1.50;99.90
15596;DHT22;7898;48.658;9.068;2024-01-15T02:41:55;-1.50;99.90
15596;DHT22;7898;48.658;9.068;2024-01-15T02:44:23;-1.60;99.90
15596;DHT22;7898;48.658;9.068;2024-01-15T02:46:50;-1.20;99.90
15596;DHT22;7898;48.658;9.068;2024-01-15T02:49:17;-1.60;99.90
15596;DHT22;7898;48.658;9.068;2024-01-15T02:51:43;-1.60;99.90
15596;DHT22;7898;48.658;9.068;2024-01-15T02:54:10;-1.60;99.90
15596;DHT22;7898;48.658;9.068;2024-01-15T02:56:37;-1.70;99.90
15596;DHT22;7898;48.658;9.068;2024-01-15T02:59:05;-1.60;99.90
15596;DHT22;7898;48.658;9.068;2024-01-15T03:01:32;-1.60;99.90
15596;DHT22;7898;48.658;9.068;2024-01-15T03:03:59;-1.70;99.90
15596;DHT22;7898;48.658;9.068;2024-01-15T03:06:26;-1.70;99.90
15596;DHT22;7898;48.658;9.068;2024-01-15T03:08:53;-1.70;99.90
15596;DHT22;7898;48.658;9.068;2024-01-15T03:11:20;-1.80;99.90
15596;DHT22;7898;48.658;9.068;2024-01-15T03:13:46;-1.80;99.90
15596;DHT22;7898;48.658;9.068;2024-01-15T03:16:15;-1.80;99.90
15596;DHT22;7898;48.658;9.068;2024-01-15T03:18:42;-1.80;99.90
15596;DHT22;7898;48.658;9.068;2024-01-15T03:21:08;-1.80;99.90
15596;DHT22;7898;48.658;9.068;2024-01-15T03:23:35;-1.80;99.90
15596;DHT22;7898;48.658;9.068;2024-01-15T03:26:02;-1.50;99.90
15596;DHT22;7898;48.658;9.068;2024-01-15T03:28:29;-2.00;99.90
15596;DHT22;7898;48.658;9.068;2024-01-15T03:30:56;-1.40;99.90
15596;DHT22;7898;48.658;9.068;2024-01-15T03:33:24;-1.90;99.90
15596;DHT22;7898;48.658;9.068;2024-01-15T03:35:51;-1.70;99.90
15596;DHT22;7898;48.658;9.068;2024-01-15T03:38:18;-1.90;99.90
15596;DHT22;7898;48.658;9.068;2024-01-15T03:40:45;-1.90;99.90
15596;DHT22;7898;48.658;9.068;2024-01-15T03:43:12;-2.00;99.90
15596;DHT22;7898;48.658;9.068;2024-01-15T03:45:39;-1.90;99.90
15596;DHT22;7898;48.658;9.068;2024-01-15T03:48:06;-2.00;99.90
15596;DHT22;7898;48.658;9.068;2024-01-15T03:50:34;-2.00;99.90
15596;DHT22;7898;48.658;9.068;2024-01-15T03:53:01;-2.00;99.90
15596;DHT22;7898;48.658;9.068;2024-01-15T03:55:28;-2.00;99.90
15596;DHT22;7898;48.658;9.068;2024-01-15T03:57:55;-1.50;99.90
15596;DHT22;7898;48.658;9.068;2024-01-15T04:00:22;-1.90;99.90
15596;DHT22;7898;48.658;9.068;2024-01-15T04:02:49;-1.80;99.90
15596;DHT22;7898;48.658;9.068;2024-01-15T04:05:16;-1.60;99.90
15596;DHT22;7898;48.658;9.068;2024-01-15T04:07:44;-1.50;99.90
15596;DHT22;7898;48.658;9.068;2024-01-15T04:10:11;-1.40;99.90
15596;DHT22;7898;48.658;9.068;2024-01-15T04:12:38;-1.40;99.90
15596;DHT22;7898;48.658;9.068;2024-01-15T04:15:05;-1.30;99.90
15596;DHT22;7898;48.658;9.068;2024-01-15T04:17:32;-1.30;99.90
15596;DHT22;7898;48.658;9.068;2024-01-15T04:19:59;-1.30;99.90
15596;DHT22;7898;48.658;9.068;2024-01-15T04:22:27;-1.30;99.90
15596;DHT22;7898;48.658;9.068;2024-01-15T04:24:55;-1.30;99.90
15596;DHT22;7898;48.658;9.068;2024-01-15T04:27:22;-1.20;99.90
15596;DHT22;7898;48.658;9.068;2024-01-15T04:29:49;-1.20;99.90
15596;DHT22;7898;48.658;9.068;2024-01-15T04:32:16;-1.10;99.90
15596;DHT22;7898;48.658;9.068;2024-01-15T04:34:42;-1.20;99.90
15596;DHT22;7898;48.658;9.068;2024-01-15T04:37:09;-1.10;99.90
15596;DHT22;7898;48.658;9.068;2024-01-15T04:39:36;-1.20;99.90
15596;DHT22;7898;48.658;9.068;2024-01-15T04:42:05;-1.20;99.90
15596;DHT22;7898;48.658;9.068;2024-01-15T04:44:32;-1.20;99.90
15596;DHT22;7898;48.658;9.068;2024-01-15T04:46:58;-1.10;99.90
15596;DHT22;7898;48.658;9.068;2024-01-15T04:49:25;-1.00;99.90
15596;DHT22;7898;48.658;9.068;2024-01-15T04:51:55;-0.90;99.90
15596;DHT22;7898;48.658;9.068;2024-01-15T04:54:22;-0.80;99.90
15596;DHT22;7898;48.658;9.068;2024-01-15T04:56:48;-1.10;99.90
15596;DHT22;7898;48.658;9.068;2024-01-15T04:59:17;-1.10;99.90
15596;DHT22;7898;48.658;9.068;2024-01-15T05:01:43;-0.40;99.90
15596;DHT22;7898;48.658;9.068;2024-01-15T05:04:10;-1.10;99.90
15596;DHT22;7898;48.658;9.068;2024-01-15T05:06:37;-1.00;99.90
15596;DHT22;7898;48.658;9.068;2024-01-15T05:09:03;-0.80;99.90
15596;DHT22;7898;48.658;9.068;2024-01-15T05:11:30;-1.10;99.90
15596;DHT22;7898;48.658;9.068;2024-01-15T05:13:57;-1.10;99.90
15596;DHT22;7898;48.658;9.068;2024-01-15T05:16:25;-1.10;99.90
15596;DHT22;7898;48.658;9.068;2024-01-15T05:18:52;-1.00;99.90
15596;DHT22;7898;48.658;9.068;2024-01-15T05:21:18;-0.90;99.90
15596;DHT22;7898;48.658;9.068;2024-01-15T05:23:45;-1.00;99.90
15596;DHT22;7898;48.658;9.068;2024-01-15T05:26:12;-1.10;99.90
15596;DHT22;7898;48.658;9.068;2024-01-15T05:28:41;-1.00;99.90
15596;DHT22;7898;48.658;9.068;2024-01-15T05:31:08;-1.00;99.90
15596;DHT22;7898;48.658;9.068;2024-01-15T05:33:37;-0.80;99.90
15596;DHT22;7898;48.658;9.068;2024-01-15T05:36:05;-0.90;99.90
15596;DHT22;7898;48.658;9.068;2024-01-15T05:38:32;-1.00;99.90
15596;DHT22;7898;48.658;9.068;2024-01-15T05:40:59;-1.00;99.90
15596;DHT22;7898;48.658;9.068;2024-01-15T05:43:26;-1.00;99.90
15596;DHT22;7898;48.658;9.068;2024-01-15T05:45:53;-1.00;99.90
15596;DHT22;7898;48.658;9.068;2024-01-15T05:48:20;-1.00;99.90
15596;DHT22;7898;48.658;9.068;2024-01-15T05:50:48;-1.00;99.90
15596;DHT22;7898;48.658;9.068;2024-01-15T05:53:15;-1.00;99.90
15596;DHT22;7898;48.658;9.068;2024-01-15T05:55:42;-1.00;99.90
15596;DHT22;7898;48.658;9.068;2024-01-15T05:58:09;-1.00;99.90
15596;DHT22;7898;48.658;9.068;2024-01-15T06:00:36;-1.00;99.90
15596;DHT22;7898;48.658;9.068;2024-01-15T06:03:04;-1.10;99.90
15596;DHT22;7898;48.658;9.068;2024-01-15T06:05:31;-1.10;99.90
15596;DHT22;7898;48.658;9.068;2024-01-15T06:07:59;-1.10;99.90
15596;DHT22;7898;48.658;9.068;2024-01-15T06:10:26;-1.00;99.90
15596;DHT22;7898;48.658;9.068;2024-01-15T06:12:53;-1.00;99.90
15596;DHT22;7898;48.658;9.068;2024-01-15T06:15:20;-1.00;99.90
15596;DHT22;7898;48.658;9.068;2024-01-15T06:17:46;-1.10;99.90
15596;DHT22;7898;48.658;9.068;2024-01-15T06:20:13;-1.10;99.90
15596;DHT22;7898;48.658;9.068;2024-01-15T06:22:40;-1.10;99.90
15596;DHT22;7898;48.658;9.068;2024-01-15T06:25:09;-1.00;99.90
15596;DHT22;7898;48.658;9.068;2024-01-15T06:27:36;-1.10;99.90
15596;DHT22;7898;48.658;9.068;2024-01-15T06:30:04;-1.00;99.90
15596;DHT22;7898;48.658;9.068;2024-01-15T06:32:31;-1.00;99.90
15596;DHT22;7898;48.658;9.068;2024-01-15T06:34:58;-1.10;99.90
15596;DHT22;7898;48.658;9.068;2024-01-15T06:37:25;-1.00;99.90
15596;DHT22;7898;48.658;9.068;2024-01-15T06:39:51;-1.00;99.90
15596;DHT22;7898;48.658;9.068;2024-01-15T06:42:20;-1.00;99.90
15596;DHT22;7898;48.658;9.068;2024-01-15T06:44:47;-1.00;99.90
15596;DHT22;7898;48.658;9.068;2024-01-15T06:47:14;-1.00;99.90
15596;DHT22;7898;48.658;9.068;2024-01-15T06:49:42;-1.00;99.90
15596;DHT22;7898;48.658;9.068;2024-01-15T06:52:09;-1.00;99.90
15596;DHT22;7898;48.658;9.068;2024-01-15T06:54:37;-1.00;99.90
15596;DHT22;7898;48.658;9.068;2024-01-15T06:57:04;-1.00;99.90
15596;DHT22;7898;48.658;9.068;2024-01-15T06:59:33;-1.00;99.90
15596;DHT22;7898;48.658;9.068;2024-01-15T07:02:00;-1.00;99.90
15596;DHT22;7898;48.658;9.068;2024-01-15T07:04:28;-1.00;99.90
15596;DHT22;7898;48.658;9.068;2024-01-15T07:06:55;-1.00;99.90
15596;DHT22;7898;48.658;9.068;2024-01-15T07:09:22;-1.00;99.90
15596;DHT22;7898;48.658;9.068;2024-01-15T07:11:49;-1.00;99.90
15596;DHT22;7898;48.658;9.068;2024-01-15T07:14:17;-1.00;99.90
15596;DHT22;7898;48.658;9.068;2024-01-15T07:16:45;-1.00;99.90
15596;DHT22;7898;48.658;9.068;2024-01-15T07:19:12;-0.90;99.90
15596;DHT22;7898;48.658;9.068;2024-01-15T07:21:39;-0.90;99.90
15596;DHT22;7898;48.658;9.068;2024-01-15T07:24:08;-1.00;99.90
15596;DHT22;7898;48.658;9.068;2024-01-15T07:26:36;-0.90;99.90
15596;DHT22;7898;48.658;9.068;2024-01-15T07:29:04;-0.90;99.90
15596;DHT22;7898;48.658;9.068;2024-01-15T07:31:31;-0.90;99.90
15596;DHT22;7898;48.658;9.068;2024-01-15T07:34:00;-0.90;99.90
15596;DHT22;7898;48.658;9.068;2024-01-15T07:36:27;-0.80;99.90
15596;DHT22;7898;48.658;9.068;2024-01-15T07:38:54;-0.90;99.90
15596;DHT22;7898;48.658;9.068;2024-01-15T07:41:20;-0.80;99.90
15596;DHT22;7898;48.658;9.068;2024-01-15T07:43:47;-0.80;99.90
15596;DHT22;7898;48.658;9.068;2024-01-15T07:46:14;-0.80;99.90
15596;DHT22;7898;48.658;9.068;2024-01-15T07:48:41;-0.70;99.90
15596;DHT22;7898;48.658;9.068;2024-01-15T07:51:10;-0.70;99.90
15596;DHT22;7898;48.658;9.068;2024-01-15T07:53:37;-0.40;99.90
15596;DHT22;7898;48.658;9.068;2024-01-15T07:56:04;-0.40;99.90
15596;DHT22;7898;48.658;9.068;2024-01-15T07:58:31;-0.60;99.90
15596;DHT22;7898;48.658;9.068;2024-01-15T08:00:57;-0.60;99.90
15596;DHT22;7898;48.658;9.068;2024-01-15T08:03:24;-0.70;99.90
15596;DHT22;7898;48.658;9.068;2024-01-15T08:05:51;-0.40;99.90
15596;DHT22;7898;48.658;9.068;2024-01-15T08:08:21;-0.60;99.90
15596;DHT22;7898;48.658;9.068;2024-01-15T08:10:48;-0.60;99.90
15596;DHT22;7898;48.658;9.068;2024-01-15T08:13:15;-0.60;99.90
15596;DHT22;7898;48.658;9.068;2024-01-15T08:15:42;-0.60;99.90
15596;DHT22;7898;48.658;9.068;2024-01-15T08:18:09;-0.50;99.90
15596;DHT22;7898;48.658;9.068;2024-01-15T08:20:36;-0.50;99.90
15596;DHT22;7898;48.658;9.068;2024-01-15T08:23:03;-0.20;99.90
15596;DHT22;7898;48.658;9.068;2024-01-15T08:25:31;-0.50;99.90
15596;DHT22;7898;48.658;9.068;2024-01-15T08:27:58;-0.40;99.90
15596;DHT22;7898;48.658;9.068;2024-01-15T08:30:25;-0.50;99.90
15596;DHT22;7898;48.658;9.068;2024-01-15T08:32:53;-0.50;99.90
15596;DHT22;7898;48.658;9.068;2024-01-15T08:35:20;-0.50;99.90
15596;DHT22;7898;48.658;9.068;2024-01-15T08:37:48;-0.50;99.90
15596;DHT22;7898;48.658;9.068;2024-01-15T08:40:15;-0.40;99.90
15596;DHT22;7898;48.658;9.068;2024-01-15T08:42:43;-0.40;99.90
15596;DHT22;7898;48.658;9.068;2024-01-15T08:45:11;-0.30;99.90
15596;DHT22;7898;48.658;9.068;2024-01-15T08:47:38;-0.30;99.90
15596;DHT22;7898;48.658;9.068;2024-01-15T08:50:06;-0.20;99.90
15596;DHT22;7898;48.658;9.068;2024-01-15T08:52:35;-0.20;99.90
15596;DHT22;7898;48.658;9.068;2024-01-15T08:55:03;0.00;99.90
15596;DHT22;7898;48.658;9.068;2024-01-15T08:57:32;0.00;99.90
15596;DHT22;7898;48.658;9.068;2024-01-15T09:00:01;0.10;99.90
15596;DHT22;7898;48.658;9.068;2024-01-15T09:02:29;0.20;99.90
15596;DHT22;7898;48.658;9.068;2024-01-15T09:04:56;0.20;99.90
15596;DHT22;7898;48.658;9.068;2024-01-15T09:07:22;0.30;99.90
15596;DHT22;7898;48.658;9.068;2024-01-15T09:09:50;0.20;99.90
15596;DHT22;7898;48.658;9.068;2024-01-15T09:12:17;0.30;99.90
15596;DHT22;7898;48.658;9.068;2024-01-15T09:14:46;0.30;99.90
15596;DHT22;7898;48.658;9.068;2024-01-15T09:17:14;0.30;99.90
15596;DHT22;7898;48.658;9.068;2024-01-15T09:19:41;0.40;99.90
15596;DHT22;7898;48.658;9.068;2024-01-15T09:22:08;0.40;99.90
15596;DHT22;7898;48.658;9.068;2024-01-15T09:24:36;0.30;99.90
15596;DHT22;7898;48.658;9.068;2024-01-15T09:27:03;0.70;99.90
15596;DHT22;7898;48.658;9.068;2024-01-15T09:29:30;0.40;99.90
15596;DHT22;7898;48.658;9.068;2024-01-15T09:31:57;0.40;99.90
15596;DHT22;7898;48.658;9.068;2024-01-15T09:34:25;0.50;99.90
15596;DHT22;7898;48.658;9.068;2024-01-15T09:36:52;0.50;99.90
15596;DHT22;7898;48.658;9.068;2024-01-15T09:39:19;0.50;99.90
15596;DHT22;7898;48.658;9.068;2024-01-15T09:41:47;1.10;99.90
15596;DHT22;7898;48.658;9.068;2024-01-15T09:44:15;0.60;99.90
15596;DHT22;7898;48.658;9.068;2024-01-15T09:46:43;0.60;99.90
15596;DHT22;7898;48.658;9.068;2024-01-15T09:49:10;0.60;99.90
15596;DHT22;7898;48.658;9.068;2024-01-15T09:51:39;0.70;99.90
15596;DHT22;7898;48.658;9.068;2024-01-15T09:54:07;0.70;99.90
15596;DHT22;7898;48.658;9.068;2024-01-15T09:56:34;0.70;99.90
15596;DHT22;7898;48.658;9.068;2024-01-15T09:59:01;0.60;99.90
15596;DHT22;7898;48.658;9.068;2024-01-15T10:01:29;0.70;99.90
15596;DHT22;7898;48.658;9.068;2024-01-15T10:03:57;0.80;99.90
15596;DHT22;7898;48.658;9.068;2024-01-15T10:06:26;0.90;99.90
15596;DHT22;7898;48.658;9.068;2024-01-15T10:08:56;0.70;99.90
15596;DHT22;7898;48.658;9.068;2024-01-15T10:11:24;0.70;99.90
15596;DHT22;7898;48.658;9.068;2024-01-15T10:13:51;1.00;99.90
15596;DHT22;7898;48.658;9.068;2024-01-15T10:16:18;0.80;99.90
15596;DHT22;7898;48.658;9.068;2024-01-15T10:18:45;0.90;99.90
15596;DHT22;7898;48.658;9.068;2024-01-15T10:21:13;0.90;99.90
15596;DHT22;7898;48.658;9.068;2024-01-15T10:23:41;0.90;99.90
15596;DHT22;7898;48.658;9.068;2024-01-15T10:26:09;0.90;99.90
15596;DHT22;7898;48.658;9.068;2024-01-15T10:28:37;0.90;99.90
15596;DHT22;7898;48.658;9.068;2024-01-15T10:31:05;0.90;99.90
15596;DHT22;7898;48.658;9.068;2024-01-15T10:33:31;1.00;99.90
15596;DHT22;7898;48.658;9.068;2024-01-15T10:36:00;0.90;99.90
15596;DHT22;7898;48.658;9.068;2024-01-15T10:38:27;0.90;99.90
15596;DHT22;7898;48.658;9.068;2024-01-15T10:40:55;0.90;99.90
15596;DHT22;7898;48.658;9.068;2024-01-15T10:43:23;0.90;99.90
15596;DHT22;7898;48.658;9.068;2024-01-15T10:45:51;0.90;99.90
15596;DHT22;7898;48.658;9.068;2024-01-15T10:48:18;1.00;99.90
15596;DHT22;7898;48.658;9.068;2024-01-15T10:50:46;1.00;99.90
15596;DHT22;7898;48.658;9.068;2024-01-15T10:53:15;1.00;99.90
15596;DHT22;7898;48.658;9.068;2024-01-15T10:55:43;1.00;99.90
15596;DHT22;7898;48.658;9.068;2024-01-15T10:58:10;1.00;99.90
15596;DHT22;7898;48.658;9.068;2024-01-15T11:00:38;1.50;99.90
15596;DHT22;7898;48.658;9.068;2024-01-15T11:03:06;0.90;99.90
15596;DHT22;7898;48.658;9.068;2024-01-15T11:05:34;0.90;99.90
15596;DHT22;7898;48.658;9.068;2024-01-15T11:08:01;0.90;99.90
15596;DHT22;7898;48.658;9.068;2024-01-15T11:10:42;0.90;99.90
15596;DHT22;7898;48.658;9.068;2024-01-15T11:13:14;0.80;99.90
15596;DHT22;7898;48.658;9.068;2024-01-15T11:16:00;0.80;99.90
15596;DHT22;7898;48.658;9.068;2024-01-15T11:18:28;0.80;99.90
15596;DHT22;7898;48.658;9.068;2024-01-15T11:21:20;0.80;99.90
15596;DHT22;7898;48.658;9.068;2024-01-15T11:23:49;0.80;99.90
15596;DHT22;7898;48.658;9.068;2024-01-15T11:26:30;0.80;99.90
15596;DHT22;7898;48.658;9.068;2024-01-15T11:28:58;0.80;99.90
15596;DHT22;7898;48.658;9.068;2024-01-15T11:31:57;0.80;99.90
15596;DHT22;7898;48.658;9.068;2024-01-15T11:34:51;0.80;99.90
15596;DHT22;7898;48.658;9.068;2024-01-15T11:37:18;0.80;99.90
15596;DHT22;7898;48.658;9.068;2024-01-15T11:39:46;0.80;99.90
15596;DHT22;7898;48.658;9.068;2024-01-15T11:42:14;0.80;99.90
15596;DHT22;7898;48.658;9.068;2024-01-15T11:44:41;0.80;99.90
15596;DHT22;7898;48.658;9.068;2024-01-15T11:47:10;0.80;99.90
15596;DHT22;7898;48.658;9.068;2024-01-15T11:50:00;0.70;99.90
15596;DHT22;7898;48.658;9.068;2024-01-15T11:52:32;0.80;99.90
15596;DHT22;7898;48.658;9.068;2024-01-15T11:55:16;0.70;99.90
15596;DHT22;7898;48.658;9.068;2024-01-15T11:57:46;0.80;99.90
15596;DHT22;7898;48.658;9.068;2024-01-15T12:00:14;0.80;99.90
15596;DHT22;7898;48.658;9.068;2024-01-15T12:02:44;0.70;99.90
15596;DHT22;7898;48.658;9.068;2024-01-15T12:05:12;0.70;99.90
15596;DHT22;7898;48.658;9.068;2024-01-15T12:07:40;0.50;99.90
15596;DHT22;7898;48.658;9.068;2024-01-15T12:10:10;0.40;99.90
15596;DHT22;7898;48.658;9.068;2024-01-15T12:13:09;0.50;99.90
15596;DHT22;7898;48.658;9.068;2024-01-15T12:15:36;0.40;99.90
15596;DHT22;7898;48.658;9.068;2024-01-15T12:18:05;0.40;99.90
15596;DHT22;7898;48.658;9.068;2024-01-15T12:20:34;0.50;99.90
15596;DHT22;7898;48.658;9.068;2024-01-15T12:23:01;0.50;99.90
15596;DHT22;7898;48.658;9.068;2024-01-15T12:25:29;0.40;99.90
15596;DHT22;7898;48.658;9.068;2024-01-15T12:27:58;0.40;99.90
15596;DHT22;7898;48.658;9.068;2024-01-15T12:30:26;0.40;99.90
15596;DHT22;7898;48.658;9.068;2024-01-15T12:32:54;0.40;99.90
15596;DHT22;7898;48.658;9.068;2024-01-15T12:35:24;0.40;99.90
15596;DHT22;7898;48.658;9.068;2024-01-15T12:37:51;0.40;99.90
15596;DHT22;7898;48.658;9.068;2024-01-15T12:40:19;0.30;99.90
15596;DHT22;7898;48.658;9.068;2024-01-15T12:42:46;0.40;99.90
15596;DHT22;7898;48.658;9.068;2024-01-15T12:45:15;0.40;99.90
15596;DHT22;7898;48.658;9.068;2024-01-15T12:47:42;0.50;99.90
15596;DHT22;7898;48.658;9.068;2024-01-15T12:50:10;0.30;99.90
15596;DHT22;7898;48.658;9.068;2024-01-15T12:52:40;0.30;99.90
15596;DHT22;7898;48.658;9.068;2024-01-15T12:55:08;0.20;99.90
15596;DHT22;7898;48.658;9.068;2024-01-15T12:57:36;0.20;99.90
15596;DHT22;7898;48.658;9.068;2024-01-15T13:00:03;0.30;99.90
15596;DHT22;7898;48.658;9.068;2024-01-15T13:02:33;0.30;99.90
15596;DHT22;7898;48.658;9.068;2024-01-15T13:05:00;0.30;99.90
15596;DHT22;7898;48.658;9.068;2024-01-15T13:07:29;0.30;99.90
15596;DHT22;7898;48.658;9.068;2024-01-15T13:09:57;0.40;99.90
15596;DHT22;7898;48.658;9.068;2024-01-15T13:12:24;0.30;99.90
15596;DHT22;7898;48.658;9.068;2024-01-15T13:14:51;0.30;99.90
15596;DHT22;7898;48.658;9.068;2024-01-15T13:17:18;0.30;99.90
15596;DHT22;7898;48.658;9.068;2024-01-15T13:19:46;0.40;99.90
15596;DHT22;7898;48.658;9.068;2024-01-15T13:22:14;0.40;99.90
15596;DHT22;7898;48.658;9.068;2024-01-15T13:24:41;0.30;99.90
15596;DHT22;7898;48.658;9.068;2024-01-15T13:27:09;0.30;99.90
15596;DHT22;7898;48.658;9.068;2024-01-15T13:29:37;0.20;99.90
15596;DHT22;7898;48.658;9.068;2024-01-15T13:32:04;0.20;99.90
15596;DHT22;7898;48.658;9.068;2024-01-15T13:34:31;0.10;99.90
15596;DHT22;7898;48.658;9.068;2024-01-15T13:36:58;0.10;99.90
15596;DHT22;7898;48.658;9.068;2024-01-15T13:39:25;0.10;99.90
15596;DHT22;7898;48.658;9.068;2024-01-15T13:41:52;0.00;99.90
15596;DHT22;7898;48.658;9.068;2024-01-15T13:44:20;0.00;99.90
15596;DHT22;7898;48.658;9.068;2024-01-15T13:46:50;0.00;99.90
15596;DHT22;7898;48.658;9.068;2024-01-15T13:49:18;0.00;99.90
15596;DHT22;7898;48.658;9.068;2024-01-15T13:51:48;0.00;99.90
15596;DHT22;7898;48.658;9.068;2024-01-15T13:54:15;0.00;99.90
15596;DHT22;7898;48.658;9.068;2024-01-15T13:56:42;0.00;99.90
15596;DHT22;7898;48.658;9.068;2024-01-15T13:59:10;0.00;99.90
15596;DHT22;7898;48.658;9.068;2024-01-15T14:01:39;0.00;99.90
15596;DHT22;7898;48.658;9.068;2024-01-15T14:04:06;0.00;99.90
15596;DHT22;7898;48.658;9.068;2024-01-15T14:06:33;0.10;99.90
15596;DHT22;7898;48.658;9.068;2024-01-15T14:09:00;0.10;99.90
15596;DHT22;7898;48.658;9.068;2024-01-15T14:11:29;0.10;99.90
15596;DHT22;7898;48.658;9.068;2024-01-15T14:13:56;0.10;99.90
15596;DHT22;7898;48.658;9.068;2024-01-15T14:16:23;0.10;99.90
15596;DHT22;7898;48.658;9.068;2024-01-15T14:18:52;0.10;99.90
15596;DHT22;7898;48.658;9.068;2024-01-15T14:21:19;0.20;99.90
15596;DHT22;7898;48.658;9.068;2024-01-15T14:23:46;0.40;99.90
15596;DHT22;7898;48.658;9.068;2024-01-15T14:26:13;0.10;99.90
15596;DHT22;7898;48.658;9.068;2024-01-15T14:28:40;0.40;99.90
15596;DHT22;7898;48.658;9.068;2024-01-15T14:31:07;0.00;99.90
15596;DHT22;7898;48.658;9.068;2024-01-15T14:33:34;0.00;99.90
15596;DHT22;7898;48.658;9.068;2024-01-15T14:36:03;0.10;99.90
15596;DHT22;7898;48.658;9.068;2024-01-15T14:38:30;0.10;99.90
15596;DHT22;7898;48.658;9.068;2024-01-15T14:40:57;0.20;99.90
15596;DHT22;7898;48.658;9.068;2024-01-15T14:43:24;0.20;99.90
15596;DHT22;7898;48.658;9.068;2024-01-15T14:45:51;0.30;99.90
15596;DHT22;7898;48.658;9.068;2024-01-15T14:48:18;0.40;99.90
15596;DHT22;7898;48.658;9.068;2024-01-15T14:50:45;0.40;99.90
15596;DHT22;7898;48.658;9.068;2024-01-15T14:53:13;0.40;99.90
15596;DHT22;7898;48.658;9.068;2024-01-15T14:55:40;0.40;99.90
15596;DHT22;7898;48.658;9.068;2024-01-15T14:58:07;0.30;99.90
15596;DHT22;7898;48.658;9.068;2024-01-15T15:00:34;0.20;99.90
15596;DHT22;7898;48.658;9.068;2024-01-15T15:03:01;0.30;99.90
15596;DHT22;7898;48.658;9.068;2024-01-15T15:05:28;0.40;99.90
15596;DHT22;7898;48.658;9.068;2024-01-15T15:07:55;0.50;99.90
15596;DHT22;7898;48.658;9.068;2024-01-15T15:10:23;0.60;99.90
15596;DHT22;7898;48.658;9.068;2024-01-15T15:12:51;0.50;99.90
15596;DHT22;7898;48.658;9.068;2024-01-15T15:15:18;0.40;99.90
15596;DHT22;7898;48.658;9.068;2024-01-15T15:17:45;0.20;99.90
15596;DHT22;7898;48.658;9.068;2024-01-15T15:20:12;0.20;99.90
15596;DHT22;7898;48.658;9.068;2024-01-15T15:22:39;0.20;99.90
15596;DHT22;7898;48.658;9.068;2024-01-15T15:25:06;0.10;99.90
15596;DHT22;7898;48.658;9.068;2024-01-15T15:27:36;0.10;99.90
15596;DHT22;7898;48.658;9.068;2024-01-15T15:30:04;0.00;99.90
15596;DHT22;7898;48.658;9.068;2024-01-15T15:32:31;0.00;99.90
15596;DHT22;7898;48.658;9.068;2024-01-15T15:34:59;-0.10;99.90
15596;DHT22;7898;48.658;9.068;2024-01-15T15:37:25;-0.10;99.90
15596;DHT22;7898;48.658;9.068;2024-01-15T15:39:52;-0.10;99.90
15596;DHT22;7898;48.658;9.068;2024-01-15T15:42:19;-0.20;99.90
15596;DHT22;7898;48.658;9.068;2024-01-15T15:44:48;-0.20;99.90
15596;DHT22;7898;48.658;9.068;2024-01-15T15:47:16;-0.20;99.90
15596;DHT22;7898;48.658;9.068;2024-01-15T15:49:43;0.00;99.90
15596;DHT22;7898;48.658;9.068;2024-01-15T15:52:10;-0.20;99.90
15596;DHT22;7898;48.658;9.068;2024-01-15T15:54:37;-0.20;99.90
15596;DHT22;7898;48.658;9.068;2024-01-15T15:57:04;-0.20;99.90